Mississippi Enterprise — WDE2542 — position and weather

sailwx.info

Track history (hours):
 
Tides and Currents Weather Stations Pressure Air Temp Water Temp Dewpoint Dewpoint Depression Visibility Wind Speed Wind Dir Waves Ship Positions

Mississippi Enterprise

Owner: U.S. United Ocean Services, LLC, Tampa, FL. More information available from US FCC via Universal Licensing System and Coast Guard Vessel Documentation Center.

Last reported at 2014-Nov-24 21:03 UTC. Time now 2014-Nov-28 05:50 UTC.
Position N 29°53' W 089°58'.

Length 187 m; draft 10.4 m.

Type: Cargo ship. MMSI: 369813000.

Date/timePositionNaut miles runAvg speedWind from/ knotsBaromVisibWave heightAir tempDewpointWater temp
2014-Nov-24 21:03N 29°53' W 089°58'3 4.4
2014-Nov-24 20:22N 29°56' W 089°59'2 0.4
2014-Nov-24 14:14N 29°57' W 090°01'0 0.0
2014-Nov-24 10:29N 29°57' W 090°01'0 0.0
2014-Nov-24 07:32N 29°57' W 090°01'0 0.0
2014-Nov-24 06:23N 29°57' W 090°01'0 0.0
2014-Nov-24 03:29N 29°57' W 090°01'0 0.0
2014-Nov-24 01:23N 29°57' W 090°01'  
2014-Nov-21 20:14N 29°57' W 090°01'0 0.0
2014-Nov-21 19:08N 29°57' W 090°01'0 0.0
2014-Nov-21 18:32N 29°57' W 090°01'0 0.0
2014-Nov-21 17:23N 29°57' W 090°01'0 0.0
2014-Nov-21 14:23N 29°57' W 090°01'0 0.0
2014-Nov-21 13:32N 29°57' W 090°01'0 0.0
2014-Nov-21 12:26N 29°57' W 090°01'0 0.0
2014-Nov-21 10:29N 29°57' W 090°01'0 0.0
2014-Nov-21 08:23N 29°57' W 090°01'1 0.2
2014-Nov-21 04:12N 29°56' W 090°00'39613.2
2014-Nov-19 22:07N 27°36' W 082°58'814.6
2014-Nov-19 21:33N 27°37' W 082°49'1312.7
2014-Nov-19 20:32N 27°41' W 082°35'1111.5
2014-Nov-19 19:33N 27°49' W 082°26'1 1.1
2014-Nov-19 18:33N 27°48' W 082°25'0 0.0
2014-Nov-19 17:33N 27°48' W 082°25'0 0.0
2014-Nov-19 16:33N 27°48' W 082°25'0 0.0
2014-Nov-19 15:33N 27°48' W 082°25'0 0.0
2014-Nov-19 14:30N 27°48' W 082°25'0 0.0
2014-Nov-19 13:30N 27°48' W 082°25'0 0.0
2014-Nov-19 08:20N 27°48' W 082°25'0 0.0
2014-Nov-19 07:06N 27°48' W 082°25'0 0.0
2014-Nov-19 06:08N 27°48' W 082°25'0 0.0
2014-Nov-19 05:32N 27°48' W 082°25'0 0.0
2014-Nov-19 04:32N 27°48' W 082°25'0 0.0
2014-Nov-19 03:23N 27°48' W 082°25'0 0.0
2014-Nov-19 02:11N 27°48' W 082°25'0 0.0
2014-Nov-19 01:32N 27°48' W 082°25'0 0.0
2014-Nov-19 00:32N 27°48' W 082°25'0 0.0
2014-Nov-18 19:17N 27°48' W 082°25'0 0.0
2014-Nov-18 18:23N 27°48' W 082°25'0 0.0
2014-Nov-18 17:29N 27°48' W 082°25'0 0.0
2014-Nov-18 16:29N 27°48' W 082°25'0 0.0
2014-Nov-18 15:23N 27°48' W 082°25'0 0.0
2014-Nov-18 14:29N 27°48' W 082°25'0 0.0
2014-Nov-18 13:32N 27°48' W 082°25'0 0.0
2014-Nov-18 12:29N 27°48' W 082°25'0 0.0
2014-Nov-18 11:23N 27°48' W 082°25'0 0.0
2014-Nov-18 10:32N 27°48' W 082°25'0 0.0
2014-Nov-18 09:32N 27°48' W 082°25'0 0.0
2014-Nov-18 08:32N 27°48' W 082°25'0 0.0
2014-Nov-18 07:14N 27°48' W 082°25'0 0.0
2014-Nov-18 06:29N 27°48' W 082°25'0 0.0
2014-Nov-18 05:23N 27°48' W 082°25'0 0.0
2014-Nov-18 04:29N 27°48' W 082°25'0 0.0
2014-Nov-17 18:29N 27°48' W 082°25'0 0.0
2014-Nov-17 17:29N 27°48' W 082°25'0 0.0
2014-Nov-17 16:29N 27°48' W 082°25'0 0.0
2014-Nov-17 14:14N 27°48' W 082°25'0 0.0
2014-Nov-17 13:32N 27°48' W 082°25'0 0.0
2014-Nov-17 12:32N 27°48' W 082°25'0 0.0
2014-Nov-17 11:32N 27°48' W 082°25'0 0.0
2014-Nov-17 10:32N 27°48' W 082°25'0 0.0
2014-Nov-17 09:32N 27°48' W 082°25'0 0.0
2014-Nov-17 08:29N 27°48' W 082°25'0 0.0
2014-Nov-17 07:32N 27°48' W 082°25'0 0.0
2014-Nov-17 06:32N 27°48' W 082°25'0 0.0
2014-Nov-17 05:32N 27°48' W 082°25'0 0.0
2014-Nov-17 04:29N 27°48' W 082°25'0 0.0
2014-Nov-17 03:33N 27°48' W 082°25'1 0.8
2014-Nov-17 02:33N 27°48' W 082°25'6 5.7
2014-Nov-17 01:34N 27°47' W 082°31'1312.6
2014-Nov-17 00:33N 27°37' W 082°41'1313.3
2014-Nov-16 23:33N 27°36' W 082°55'  
Track history (hours):
 
Tides and Currents Weather Stations Pressure Air Temp Water Temp Dewpoint Dewpoint Depression Visibility Wind Speed Wind Dir Waves Ship Positions

Mississippi Enterprise

Owner: U.S. United Ocean Services, LLC, Tampa, FL. More information available from US FCC via Universal Licensing System and Coast Guard Vessel Documentation Center.

Last reported at 2014-Nov-24 21:03 UTC. Time now 2014-Nov-28 05:50 UTC.
Position N 29°53' W 089°58'.

Length 187 m; draft 10.4 m.

Type: Cargo ship. MMSI: 369813000.

Date/timePositionNaut miles runAvg speedWind from/ knotsBaromVisibWave heightAir tempDewpointWater temp
2014-Nov-24 21:03N 29°53' W 089°58'3 4.4
2014-Nov-24 20:22N 29°56' W 089°59'2 0.4
2014-Nov-24 14:14N 29°57' W 090°01'0 0.0
2014-Nov-24 10:29N 29°57' W 090°01'0 0.0
2014-Nov-24 07:32N 29°57' W 090°01'0 0.0
2014-Nov-24 06:23N 29°57' W 090°01'0 0.0
2014-Nov-24 03:29N 29°57' W 090°01'0 0.0
2014-Nov-24 01:23N 29°57' W 090°01'  
2014-Nov-21 20:14N 29°57' W 090°01'0 0.0
2014-Nov-21 19:08N 29°57' W 090°01'0 0.0
2014-Nov-21 18:32N 29°57' W 090°01'0 0.0
2014-Nov-21 17:23N 29°57' W 090°01'0 0.0
2014-Nov-21 14:23N 29°57' W 090°01'0 0.0
2014-Nov-21 13:32N 29°57' W 090°01'0 0.0
2014-Nov-21 12:26N 29°57' W 090°01'0 0.0
2014-Nov-21 10:29N 29°57' W 090°01'0 0.0
2014-Nov-21 08:23N 29°57' W 090°01'1 0.2
2014-Nov-21 04:12N 29°56' W 090°00'39613.2
2014-Nov-19 22:07N 27°36' W 082°58'814.6
2014-Nov-19 21:33N 27°37' W 082°49'1312.7
2014-Nov-19 20:32N 27°41' W 082°35'1111.5
2014-Nov-19 19:33N 27°49' W 082°26'1 1.1
2014-Nov-19 18:33N 27°48' W 082°25'0 0.0
2014-Nov-19 17:33N 27°48' W 082°25'0 0.0
2014-Nov-19 16:33N 27°48' W 082°25'0 0.0
2014-Nov-19 15:33N 27°48' W 082°25'0 0.0
2014-Nov-19 14:30N 27°48' W 082°25'0 0.0
2014-Nov-19 13:30N 27°48' W 082°25'0 0.0
2014-Nov-19 08:20N 27°48' W 082°25'0 0.0
2014-Nov-19 07:06N 27°48' W 082°25'0 0.0
2014-Nov-19 06:08N 27°48' W 082°25'0 0.0
2014-Nov-19 05:32N 27°48' W 082°25'0 0.0
2014-Nov-19 04:32N 27°48' W 082°25'0 0.0
2014-Nov-19 03:23N 27°48' W 082°25'0 0.0
2014-Nov-19 02:11N 27°48' W 082°25'0 0.0
2014-Nov-19 01:32N 27°48' W 082°25'0 0.0
2014-Nov-19 00:32N 27°48' W 082°25'0 0.0
2014-Nov-18 19:17N 27°48' W 082°25'0 0.0
2014-Nov-18 18:23N 27°48' W 082°25'0 0.0
2014-Nov-18 17:29N 27°48' W 082°25'0 0.0
2014-Nov-18 16:29N 27°48' W 082°25'0 0.0
2014-Nov-18 15:23N 27°48' W 082°25'0 0.0
2014-Nov-18 14:29N 27°48' W 082°25'0 0.0
2014-Nov-18 13:32N 27°48' W 082°25'0 0.0
2014-Nov-18 12:29N 27°48' W 082°25'0 0.0
2014-Nov-18 11:23N 27°48' W 082°25'0 0.0
2014-Nov-18 10:32N 27°48' W 082°25'0 0.0
2014-Nov-18 09:32N 27°48' W 082°25'0 0.0
2014-Nov-18 08:32N 27°48' W 082°25'0 0.0
2014-Nov-18 07:14N 27°48' W 082°25'0 0.0
2014-Nov-18 06:29N 27°48' W 082°25'0 0.0
2014-Nov-18 05:23N 27°48' W 082°25'0 0.0
2014-Nov-18 04:29N 27°48' W 082°25'0 0.0
2014-Nov-17 18:29N 27°48' W 082°25'0 0.0
2014-Nov-17 17:29N 27°48' W 082°25'0 0.0
2014-Nov-17 16:29N 27°48' W 082°25'0 0.0
2014-Nov-17 14:14N 27°48' W 082°25'0 0.0
2014-Nov-17 13:32N 27°48' W 082°25'0 0.0
2014-Nov-17 12:32N 27°48' W 082°25'0 0.0
2014-Nov-17 11:32N 27°48' W 082°25'0 0.0
2014-Nov-17 10:32N 27°48' W 082°25'0 0.0
2014-Nov-17 09:32N 27°48' W 082°25'0 0.0
2014-Nov-17 08:29N 27°48' W 082°25'0 0.0
2014-Nov-17 07:32N 27°48' W 082°25'0 0.0
2014-Nov-17 06:32N 27°48' W 082°25'0 0.0
2014-Nov-17 05:32N 27°48' W 082°25'0 0.0
2014-Nov-17 04:29N 27°48' W 082°25'0 0.0
2014-Nov-17 03:33N 27°48' W 082°25'1 0.8
2014-Nov-17 02:33N 27°48' W 082°25'6 5.7
2014-Nov-17 01:34N 27°47' W 082°31'1312.6
2014-Nov-17 00:33N 27°37' W 082°41'1313.3
2014-Nov-16 23:33N 27°36' W 082°55'  

Dump ship's entire track history